Time;durP1;ratioP1;P1;durP2;ratioP2;P2;SDS_P1;SDS_P2;PMS_P1;PMS_P2;Temp;Humidity;BMP_temperature;BMP_pressure;BME280_temperature;BME280_humidity;BME280_pressure;Samples;Min_cycle;Max_cycle;Signal;HPM_P1;HPM_P2
2022/12/23 00:03:07;;;;;;;172.23;6.20;;;;;;;;;;8266096;28;20892;-76
2022/12/23 00:07:08;;;;;;;36.72;2.47;;;;;;;;;;8268536;28;20034;-76
2022/12/23 00:11:16;;;;;;;24.48;1.85;;;;;;;;;;8267322;28;20075;-76
2022/12/23 00:15:16;;;;;;;3.03;1.63;;;;;;;;;;8267686;28;20029;-76
2022/12/23 00:19:17;;;;;;;8.93;2.05;;;;;;;;;;8267453;28;20022;-76
2022/12/23 00:23:17;;;;;;;1.33;1.23;;;;;;;;;;8267941;28;20041;-76
2022/12/23 00:27:17;;;;;;;5.03;1.63;;;;;;;;;;8266663;28;20653;-76
2022/12/23 00:31:18;;;;;;;1.60;1.50;;;;;;;;;;8264387;28;20129;-76
2022/12/23 00:35:18;;;;;;;2.28;1.20;;;;;;;;;;8267105;28;20275;-76
2022/12/23 00:43:37;;;;;;;0.63;0.52;;;;;;;;;;8267925;28;20032;-76
2022/12/23 00:51:56;;;;;;;0.75;0.50;;;;;;;;;;8267513;28;20068;-76
2022/12/23 00:55:56;;;;;;;0.65;0.50;;;;;;;;;;8264357;28;20034;-76
2022/12/23 00:59:57;;;;;;;0.50;0.50;;;;;;;;;;8266476;28;20030;-76
2022/12/23 01:08:16;;;;;;;1.75;0.70;;;;;;;;;;8264707;28;20129;-76
2022/12/23 01:12:16;;;;;;;1.15;0.60;;;;;;;;;;8266351;28;20058;-76
2022/12/23 01:16:16;;;;;;;0.85;0.60;;;;;;;;;;8264073;28;20065;-76
2022/12/23 01:20:17;;;;;;;0.60;0.60;;;;;;;;;;8267367;28;20026;-77
2022/12/23 01:24:17;;;;;;;0.60;0.60;;;;;;;;;;8265282;28;20308;-76
2022/12/23 01:28:18;;;;;;;0.60;0.60;;;;;;;;;;8268369;28;20057;-76
2022/12/23 01:32:18;;;;;;;0.60;0.60;;;;;;;;;;8267157;28;20080;-76
2022/12/23 01:36:18;;;;;;;0.60;0.60;;;;;;;;;;8279321;28;20045;-76
2022/12/23 01:40:19;;;;;;;1.85;0.60;;;;;;;;;;8274281;28;20284;-76
2022/12/23 01:44:38;;;;;;;1.65;0.70;;;;;;;;;;8273291;28;20117;-75
2022/12/23 01:48:38;;;;;;;1.50;0.77;;;;;;;;;;8272022;28;20038;-75
2022/12/23 01:52:42;;;;;;;1.10;0.70;;;;;;;;;;8273001;28;20033;-75
2022/12/23 01:56:42;;;;;;;0.60;0.60;;;;;;;;;;8269545;28;20025;-75
2022/12/23 02:05:01;;;;;;;1.20;0.60;;;;;;;;;;8271553;28;20573;-76
2022/12/23 02:09:17;;;;;;;2.47;0.70;;;;;;;;;;8273066;28;20419;-75
2022/12/23 02:16:15;;;;;;;0.38;0.38;;;;;;;;;;8279619;28;20993;-75
2022/12/23 02:18:32;;;;;;;0.68;0.68;;;;;;;;;;8230775;28;20038;-75
2022/12/23 02:22:42;;;;;;;1.42;0.52;;;;;;;;;;8269490;28;20029;-75
2022/12/23 02:26:55;;;;;;;0.95;0.50;;;;;;;;;;8271080;28;20033;-75
2022/12/23 02:31:15;;;;;;;0.43;0.43;;;;;;;;;;8271793;28;20030;-75
2022/12/23 02:35:22;;;;;;;0.50;0.50;;;;;;;;;;8278034;28;20025;-75
2022/12/23 02:39:38;;;;;;;0.65;0.50;;;;;;;;;;8268172;28;20052;-75
2022/12/23 02:43:49;;;;;;;0.50;0.50;;;;;;;;;;8270159;28;20037;-75
2022/12/23 02:47:53;;;;;;;0.47;0.47;;;;;;;;;;8269787;28;20053;-75
2022/12/23 02:51:55;;;;;;;0.40;0.40;;;;;;;;;;8270899;28;20024;-76
2022/12/23 02:55:56;;;;;;;0.50;0.50;;;;;;;;;;8269960;28;20053;-75
2022/12/23 02:59:57;;;;;;;0.40;0.40;;;;;;;;;;8271048;28;20159;-75
2022/12/23 03:03:58;;;;;;;0.40;0.40;;;;;;;;;;8269631;28;20037;-75
2022/12/23 03:08:01;;;;;;;0.40;0.40;;;;;;;;;;8270846;28;20036;-75
2022/12/23 03:12:10;;;;;;;0.40;0.40;;;;;;;;;;8268954;28;20029;-75
2022/12/23 03:16:16;;;;;;;0.40;0.40;;;;;;;;;;8269893;28;20096;-75
2022/12/23 03:20:19;;;;;;;0.52;0.40;;;;;;;;;;8269478;28;20099;-75
2022/12/23 03:24:25;;;;;;;1.13;0.40;;;;;;;;;;8268483;28;20672;-75
2022/12/23 03:28:25;;;;;;;1.42;0.30;;;;;;;;;;8270756;28;20571;-75
2022/12/23 03:32:27;;;;;;;0.63;0.40;;;;;;;;;;8269215;28;20051;-75
2022/12/23 03:36:30;;;;;;;0.35;0.35;;;;;;;;;;8269315;28;20056;-75
2022/12/23 03:40:35;;;;;;;2.67;0.40;;;;;;;;;;8269796;28;20044;-76
2022/12/23 03:44:37;;;;;;;0.50;0.50;;;;;;;;;;8267113;28;20390;-76
2022/12/23 03:48:39;;;;;;;0.52;0.40;;;;;;;;;;8285333;28;20070;-75
2022/12/23 03:52:41;;;;;;;0.40;0.40;;;;;;;;;;8277259;28;20689;-75
2022/12/23 03:56:44;;;;;;;0.43;0.40;;;;;;;;;;8267442;28;20064;-75
2022/12/23 04:00:53;;;;;;;0.30;0.30;;;;;;;;;;8267850;28;20038;-76
2022/12/23 04:05:11;;;;;;;0.35;0.35;;;;;;;;;;8265871;28;20029;-76
2022/12/23 04:09:13;;;;;;;0.40;0.40;;;;;;;;;;8267715;28;20030;-75
2022/12/23 04:13:13;;;;;;;0.40;0.40;;;;;;;;;;8267928;28;20024;-75
2022/12/23 04:17:14;;;;;;;0.47;0.40;;;;;;;;;;8264828;28;20034;-76
2022/12/23 04:21:14;;;;;;;0.38;0.38;;;;;;;;;;8264923;28;20080;-75
2022/12/23 04:25:15;;;;;;;0.30;0.30;;;;;;;;;;8264479;28;20022;-75
2022/12/23 04:29:15;;;;;;;0.40;0.40;;;;;;;;;;8274146;28;20533;-75
2022/12/23 04:33:15;;;;;;;2.95;0.40;;;;;;;;;;8269299;28;20130;-75
2022/12/23 04:37:15;;;;;;;2.10;0.50;;;;;;;;;;8266703;28;20132;-75
2022/12/23 04:41:16;;;;;;;1.05;0.40;;;;;;;;;;8270990;28;20410;-75
2022/12/23 04:45:16;;;;;;;0.65;0.40;;;;;;;;;;8266657;28;20437;-75
2022/12/23 04:49:16;;;;;;;4.90;0.60;;;;;;;;;;8267771;28;20076;-75
2022/12/23 04:53:16;;;;;;;1.17;0.30;;;;;;;;;;8266528;28;20026;-75
2022/12/23 04:57:17;;;;;;;0.30;0.30;;;;;;;;;;8265682;28;20504;-77
2022/12/23 05:01:17;;;;;;;0.40;0.40;;;;;;;;;;8267905;28;20042;-75
2022/12/23 05:05:17;;;;;;;0.57;0.40;;;;;;;;;;8265775;28;20291;-75
2022/12/23 05:09:17;;;;;;;0.40;0.40;;;;;;;;;;8272085;28;20034;-75
2022/12/23 05:13:17;;;;;;;1.17;0.40;;;;;;;;;;8281736;28;20041;-75
2022/12/23 05:17:17;;;;;;;0.30;0.30;;;;;;;;;;8273276;28;20034;-75
2022/12/23 05:21:18;;;;;;;1.02;0.40;;;;;;;;;;8271683;28;20087;-75
2022/12/23 05:25:18;;;;;;;0.65;0.40;;;;;;;;;;8273111;28;20080;-75
2022/12/23 05:29:18;;;;;;;0.30;0.30;;;;;;;;;;8274532;28;20036;-75
2022/12/23 05:33:18;;;;;;;0.50;0.40;;;;;;;;;;8273337;28;20037;-75
2022/12/23 05:37:19;;;;;;;0.80;0.40;;;;;;;;;;8272159;28;21095;-76
2022/12/23 05:41:19;;;;;;;0.30;0.30;;;;;;;;;;8273417;28;20040;-75
2022/12/23 05:45:19;;;;;;;0.40;0.40;;;;;;;;;;8272781;28;20047;-76
2022/12/23 05:49:21;;;;;;;1.15;0.40;;;;;;;;;;8274135;28;20116;-75
2022/12/23 05:53:22;;;;;;;0.30;0.30;;;;;;;;;;8273827;28;20033;-76
2022/12/23 05:57:22;;;;;;;0.85;0.40;;;;;;;;;;8285374;28;20030;-75
2022/12/23 06:01:23;;;;;;;0.40;0.40;;;;;;;;;;8273052;28;20131;-76
2022/12/23 06:05:23;;;;;;;1.08;0.43;;;;;;;;;;8271280;28;20030;-76
2022/12/23 06:09:23;;;;;;;0.47;0.47;;;;;;;;;;8271360;28;20034;-76
2022/12/23 06:13:23;;;;;;;0.52;0.40;;;;;;;;;;8273048;28;20059;-76
2022/12/23 06:17:24;;;;;;;0.50;0.50;;;;;;;;;;8268009;28;20061;-76
2022/12/23 06:21:24;;;;;;;0.60;0.60;;;;;;;;;;8270971;28;20299;-76
2022/12/23 06:25:24;;;;;;;3.70;0.80;;;;;;;;;;8270530;28;20028;-76
2022/12/23 06:29:24;;;;;;;0.70;0.70;;;;;;;;;;8273261;28;20358;-76
2022/12/23 06:33:25;;;;;;;1.42;0.80;;;;;;;;;;8271321;28;20046;-75
2022/12/23 06:37:25;;;;;;;1.23;0.70;;;;;;;;;;8272402;28;20750;-75
2022/12/23 06:41:25;;;;;;;0.70;0.70;;;;;;;;;;8271330;28;20034;-75
2022/12/23 06:45:25;;;;;;;0.60;0.60;;;;;;;;;;8270327;28;20272;-76
2022/12/23 06:49:25;;;;;;;0.40;0.40;;;;;;;;;;8271492;28;20140;-75
2022/12/23 06:53:26;;;;;;;0.93;0.60;;;;;;;;;;8270702;28;20187;-75
2022/12/23 06:57:26;;;;;;;0.55;0.50;;;;;;;;;;8268895;28;20824;-75
2022/12/23 07:01:26;;;;;;;0.40;0.40;;;;;;;;;;8271576;28;20038;-75
2022/12/23 07:05:26;;;;;;;0.65;0.50;;;;;;;;;;8269211;28;20100;-75
2022/12/23 07:09:26;;;;;;;0.43;0.43;;;;;;;;;;8268336;28;20033;-76
2022/12/23 07:13:27;;;;;;;0.63;0.50;;;;;;;;;;8270260;28;20026;-75
2022/12/23 07:17:27;;;;;;;3.40;0.60;;;;;;;;;;8267163;28;20040;-75
2022/12/23 07:21:27;;;;;;;0.73;0.73;;;;;;;;;;8271574;28;20022;-75
2022/12/23 07:25:27;;;;;;;0.85;0.45;;;;;;;;;;8268321;28;20585;-75
2022/12/23 07:29:27;;;;;;;0.90;0.40;;;;;;;;;;8268973;28;20096;-75
2022/12/23 07:33:28;;;;;;;0.95;0.50;;;;;;;;;;8268237;28;20046;-75
2022/12/23 07:37:28;;;;;;;1.73;0.50;;;;;;;;;;8267668;28;20049;-75
2022/12/23 07:41:28;;;;;;;3.42;0.80;;;;;;;;;;8268699;28;20044;-76
2022/12/23 07:45:28;;;;;;;0.50;0.50;;;;;;;;;;8267368;28;20034;-75
2022/12/23 07:49:29;;;;;;;0.68;0.60;;;;;;;;;;8263595;28;20034;-75
2022/12/23 07:53:29;;;;;;;0.50;0.50;;;;;;;;;;8266520;28;20876;-75
2022/12/23 07:57:34;;;;;;;0.47;0.47;;;;;;;;;;8261266;28;20022;-75
2022/12/23 08:01:34;;;;;;;0.68;0.52;;;;;;;;;;8272437;28;20037;-75
2022/12/23 08:05:34;;;;;;;0.70;0.70;;;;;;;;;;8263969;28;20029;-75
2022/12/23 08:09:35;;;;;;;0.75;0.40;;;;;;;;;;8264389;28;20799;-75
2022/12/23 08:13:36;;;;;;;1.27;0.55;;;;;;;;;;8263892;28;20036;-75
2022/12/23 08:17:36;;;;;;;1.15;0.70;;;;;;;;;;8261027;28;20080;-75
2022/12/23 08:21:36;;;;;;;0.70;0.70;;;;;;;;;;8264832;28;20108;-76
2022/12/23 08:25:37;;;;;;;0.50;0.50;;;;;;;;;;8263118;28;20036;-75
2022/12/23 08:29:40;;;;;;;0.85;0.63;;;;;;;;;;8262742;28;20037;-75
2022/12/23 08:33:41;;;;;;;0.73;0.70;;;;;;;;;;8263015;28;20092;-75
2022/12/23 08:37:42;;;;;;;0.85;0.70;;;;;;;;;;8264219;28;20033;-74
2022/12/23 08:41:43;;;;;;;0.80;0.80;;;;;;;;;;8262969;28;20032;-75
2022/12/23 08:45:43;;;;;;;0.52;0.52;;;;;;;;;;8262803;28;20750;-75
2022/12/23 08:49:44;;;;;;;0.73;0.73;;;;;;;;;;8261829;28;20163;-75
2022/12/23 08:53:44;;;;;;;1.15;0.70;;;;;;;;;;8263967;28;20036;-75
2022/12/23 08:57:45;;;;;;;1.30;1.00;;;;;;;;;;8262648;28;20041;-75
2022/12/23 09:01:45;;;;;;;1.20;0.90;;;;;;;;;;8265216;28;20030;-75
2022/12/23 09:05:46;;;;;;;1.00;0.80;;;;;;;;;;8259472;28;20094;-74
2022/12/23 09:09:46;;;;;;;1.38;1.25;;;;;;;;;;8263399;28;20156;-74
2022/12/23 09:13:46;;;;;;;0.90;0.90;;;;;;;;;;8263311;28;20033;-74
2022/12/23 09:17:46;;;;;;;0.95;0.82;;;;;;;;;;8260482;28;20045;-75
2022/12/23 09:21:47;;;;;;;0.93;0.90;;;;;;;;;;8262558;28;20021;-74
2022/12/23 09:25:47;;;;;;;0.70;0.70;;;;;;;;;;8260724;28;20573;-75
2022/12/23 09:29:47;;;;;;;1.48;1.20;;;;;;;;;;8263429;28;21094;-74
2022/12/23 09:33:48;;;;;;;1.40;1.30;;;;;;;;;;8261325;28;20037;-74
2022/12/23 09:37:48;;;;;;;1.58;1.48;;;;;;;;;;8259925;28;20030;-74
2022/12/23 09:42:01;;;;;;;1.70;1.60;;;;;;;;;;8263148;28;20029;-73
2022/12/23 09:46:10;;;;;;;2.78;1.63;;;;;;;;;;8261742;28;21132;-74
2022/12/23 09:50:24;;;;;;;1.58;1.48;;;;;;;;;;8263557;28;20100;-74
2022/12/23 09:54:28;;;;;;;2.47;1.40;;;;;;;;;;8264420;28;20129;-74
2022/12/23 09:58:30;;;;;;;2.35;1.50;;;;;;;;;;8268489;28;20033;-74
2022/12/23 10:02:51;;;;;;;1.40;1.30;;;;;;;;;;8277858;28;20073;-74
2022/12/23 10:07:09;;;;;;;1.50;1.30;;;;;;;;;;8267875;28;20108;-73
2022/12/23 10:11:16;;;;;;;1.48;1.30;;;;;;;;;;8268435;28;20025;-74
2022/12/23 10:15:36;;;;;;;2.45;1.20;;;;;;;;;;8266273;28;20045;-74
2022/12/23 10:19:41;;;;;;;4.55;1.50;;;;;;;;;;8267969;28;20113;-74
2022/12/23 10:23:43;;;;;;;1.15;1.13;;;;;;;;;;8266174;28;20477;-74
2022/12/23 10:27:43;;;;;;;1.00;1.00;;;;;;;;;;8265665;28;20049;-74
2022/12/23 10:32:04;;;;;;;3.03;1.38;;;;;;;;;;8264006;28;20045;-74
2022/12/23 10:36:36;;;;;;;5.25;1.20;;;;;;;;;;8265729;28;20099;-74
2022/12/23 10:40:44;;;;;;;1.77;1.67;;;;;;;;;;8221256;28;20482;-76
2022/12/23 10:44:47;;;;;;;1.08;0.80;;;;;;;;;;8265955;28;21082;-77
2022/12/23 10:48:52;;;;;;;0.93;0.80;;;;;;;;;;8264635;28;20779;-76
2022/12/23 10:52:54;;;;;;;0.68;0.68;;;;;;;;;;8273914;28;20022;-78
2022/12/23 10:56:55;;;;;;;1.05;0.80;;;;;;;;;;8279610;28;20018;-76
2022/12/23 11:00:59;;;;;;;0.98;0.75;;;;;;;;;;8265055;28;20981;-76
2022/12/23 11:04:59;;;;;;;2.47;2.17;;;;;;;;;;8260182;28;20914;-76
2022/12/23 11:09:00;;;;;;;5.90;3.92;;;;;;;;;;8267707;28;20022;-76
2022/12/23 11:13:00;;;;;;;5.22;3.50;;;;;;;;;;8265308;28;20026;-76
2022/12/23 11:17:01;;;;;;;5.43;3.72;;;;;;;;;;8261819;28;20030;-75
2022/12/23 11:21:03;;;;;;;3.13;2.58;;;;;;;;;;8261970;28;21097;-75
2022/12/23 11:25:22;;;;;;;2.50;2.30;;;;;;;;;;8262007;28;20021;-75
2022/12/23 11:29:23;;;;;;;1.92;1.83;;;;;;;;;;8264188;28;20128;-75
2022/12/23 11:33:26;;;;;;;3.22;2.22;;;;;;;;;;8264877;28;20840;-75
2022/12/23 11:37:27;;;;;;;2.00;1.90;;;;;;;;;;8263725;28;20037;-74
2022/12/23 11:41:32;;;;;;;2.37;1.47;;;;;;;;;;8264715;28;20288;-75
2022/12/23 11:45:34;;;;;;;1.63;1.10;;;;;;;;;;8263653;28;20030;-74
2022/12/23 11:49:45;;;;;;;1.40;1.30;;;;;;;;;;8263884;28;20030;-74
2022/12/23 11:53:45;;;;;;;2.00;1.80;;;;;;;;;;8262736;28;20032;-74
2022/12/23 11:57:47;;;;;;;2.35;1.75;;;;;;;;;;8263779;28;20025;-74
2022/12/23 12:01:47;;;;;;;1.88;1.77;;;;;;;;;;8264808;28;20041;-74
2022/12/23 12:05:58;;;;;;;1.88;1.42;;;;;;;;;;8263516;28;20017;-74
2022/12/23 12:10:00;;;;;;;1.25;1.15;;;;;;;;;;8264331;28;20037;-76
2022/12/23 12:14:05;;;;;;;2.30;1.30;;;;;;;;;;8261656;28;20041;-75
2022/12/23 12:18:07;;;;;;;1.33;1.23;;;;;;;;;;8260317;28;20037;-75
2022/12/23 12:22:12;;;;;;;1.27;1.17;;;;;;;;;;8262186;28;20050;-75
2022/12/23 12:26:29;;;;;;;2.30;1.13;;;;;;;;;;8264889;28;20025;-75
2022/12/23 12:30:36;;;;;;;2.97;2.00;;;;;;;;;;8264704;28;20109;-75
2022/12/23 12:34:42;;;;;;;1.95;1.40;;;;;;;;;;8263163;28;20134;-75
2022/12/23 12:38:45;;;;;;;2.00;1.67;;;;;;;;;;8265340;28;20807;-75
2022/12/23 12:42:52;;;;;;;5.75;3.58;;;;;;;;;;8263922;28;20785;-75
2022/12/23 12:47:00;;;;;;;6.47;4.10;;;;;;;;;;8263144;28;20038;-76
2022/12/23 12:51:07;;;;;;;5.38;2.95;;;;;;;;;;8264563;28;20461;-75
2022/12/23 12:55:15;;;;;;;3.50;2.85;;;;;;;;;;8262744;28;20715;-75
2022/12/23 12:59:16;;;;;;;9.18;4.53;;;;;;;;;;8271143;28;20033;-75
2022/12/23 13:03:19;;;;;;;4.18;3.60;;;;;;;;;;8262097;28;20107;-75
2022/12/23 13:07:25;;;;;;;5.32;3.30;;;;;;;;;;8262597;28;20521;-76
2022/12/23 13:11:43;;;;;;;5.50;2.88;;;;;;;;;;8263784;28;20033;-76
2022/12/23 13:15:52;;;;;;;2.45;1.90;;;;;;;;;;8263319;28;20034;-76
2022/12/23 13:20:14;;;;;;;1.80;1.38;;;;;;;;;;8261961;28;20037;-77
2022/12/23 13:24:34;;;;;;;1.40;1.30;;;;;;;;;;8261073;28;20040;-76
2022/12/23 13:28:34;;;;;;;1.30;0.80;;;;;;;;;;8264271;28;20025;-76
2022/12/23 13:32:43;;;;;;;2.83;1.00;;;;;;;;;;8265510;28;20052;-76
2022/12/23 13:36:48;;;;;;;0.70;0.70;;;;;;;;;;8267122;28;20022;-75
2022/12/23 13:40:48;;;;;;;2.67;0.90;;;;;;;;;;8265733;28;20036;-75
2022/12/23 13:44:49;;;;;;;0.82;0.82;;;;;;;;;;8266213;28;20040;-76
2022/12/23 13:49:02;;;;;;;0.97;0.73;;;;;;;;;;8269107;28;20127;-75
2022/12/23 13:53:03;;;;;;;0.68;0.50;;;;;;;;;;8268566;28;20032;-75
2022/12/23 13:57:09;;;;;;;0.70;0.70;;;;;;;;;;8266732;28;20143;-75
2022/12/23 14:01:12;;;;;;;1.73;0.60;;;;;;;;;;8267827;28;20045;-75
2022/12/23 14:05:35;;;;;;;1.90;0.70;;;;;;;;;;8267171;28;20025;-75
2022/12/23 14:09:37;;;;;;;0.70;0.70;;;;;;;;;;8261633;28;20277;-75
2022/12/23 14:14:00;;;;;;;0.57;0.57;;;;;;;;;;8267524;28;20025;-75
2022/12/23 14:18:10;;;;;;;0.60;0.60;;;;;;;;;;8259659;28;20030;-76
2022/12/23 14:22:25;;;;;;;0.30;0.30;;;;;;;;;;8266395;28;20903;-75
2022/12/23 14:26:25;;;;;;;0.35;0.35;;;;;;;;;;8264777;28;20746;-76
2022/12/23 14:30:36;;;;;;;0.40;0.40;;;;;;;;;;8265008;28;20493;-76
2022/12/23 14:34:36;;;;;;;0.40;0.40;;;;;;;;;;8264541;28;20124;-76
2022/12/23 14:38:36;;;;;;;0.40;0.40;;;;;;;;;;8280937;28;20060;-76
2022/12/23 14:42:41;;;;;;;0.40;0.40;;;;;;;;;;8267065;28;20780;-76
2022/12/23 14:46:41;;;;;;;0.50;0.50;;;;;;;;;;8282143;28;20036;-76
2022/12/23 14:50:41;;;;;;;0.55;0.55;;;;;;;;;;8265848;28;20021;-76
2022/12/23 14:54:41;;;;;;;1.20;0.90;;;;;;;;;;8264950;28;20026;-76
2022/12/23 14:58:45;;;;;;;0.60;0.60;;;;;;;;;;8264832;28;20383;-77
2022/12/23 15:02:45;;;;;;;0.70;0.70;;;;;;;;;;8262832;28;20037;-76
2022/12/23 15:06:50;;;;;;;1.30;0.60;;;;;;;;;;8264652;28;20035;-76
2022/12/23 15:10:51;;;;;;;0.80;0.80;;;;;;;;;;8265240;28;20346;-76
2022/12/23 15:14:53;;;;;;;0.60;0.60;;;;;;;;;;8264207;28;20767;-77
2022/12/23 15:18:55;;;;;;;0.70;0.70;;;;;;;;;;8264970;28;20041;-76
2022/12/23 15:22:59;;;;;;;0.75;0.70;;;;;;;;;;8264181;28;20053;-77
2022/12/23 15:26:59;;;;;;;;;;;;;;;;;;8263901;28;20057;-77
2022/12/23 15:30:59;;;;;;;0.70;0.70;;;;;;;;;;8263514;28;19921;-76
2022/12/23 15:35:02;;;;;;;1.37;0.70;;;;;;;;;;8266641;28;20017;-76
2022/12/23 15:39:07;;;;;;;0.65;0.60;;;;;;;;;;8266658;28;20379;-76
2022/12/23 15:43:22;;;;;;;0.60;0.60;;;;;;;;;;8262125;28;20593;-76
2022/12/23 15:47:37;;;;;;;0.40;0.40;;;;;;;;;;8262929;28;20042;-76
2022/12/23 15:51:49;;;;;;;2.25;0.80;;;;;;;;;;8264596;28;20034;-76
2022/12/23 15:55:49;;;;;;;0.55;0.55;;;;;;;;;;8265073;28;20025;-77
2022/12/23 15:59:50;;;;;;;0.73;0.73;;;;;;;;;;8265373;28;20133;-76
2022/12/23 16:03:52;;;;;;;0.60;0.60;;;;;;;;;;8264030;28;20340;-77
2022/12/23 16:08:06;;;;;;;1.25;0.70;;;;;;;;;;8265359;28;20690;-77
2022/12/23 16:12:23;;;;;;;0.85;0.85;;;;;;;;;;8266161;28;20029;-77
2022/12/23 16:16:26;;;;;;;2.60;0.70;;;;;;;;;;8264874;28;20076;-76
2022/12/23 16:20:26;;;;;;;0.60;0.60;;;;;;;;;;8265678;28;20344;-75
2022/12/23 16:24:26;;;;;;;0.55;0.55;;;;;;;;;;8265428;28;20091;-75
2022/12/23 16:28:38;;;;;;;0.85;0.60;;;;;;;;;;8263933;28;20033;-75
2022/12/23 16:32:53;;;;;;;2.17;0.52;;;;;;;;;;8265232;28;20048;-75
2022/12/23 16:36:53;;;;;;;0.50;0.50;;;;;;;;;;8261876;28;20040;-76
2022/12/23 16:40:54;;;;;;;0.50;0.50;;;;;;;;;;8261961;28;20026;-76
2022/12/23 16:44:55;;;;;;;1.00;0.57;;;;;;;;;;8264384;28;20035;-75
2022/12/23 16:48:57;;;;;;;0.50;0.50;;;;;;;;;;8264939;28;20124;-74
2022/12/23 16:52:57;;;;;;;0.60;0.60;;;;;;;;;;8264939;28;20292;-75
2022/12/23 16:56:57;;;;;;;0.60;0.60;;;;;;;;;;8262800;28;20088;-75
2022/12/23 17:00:58;;;;;;;0.82;0.80;;;;;;;;;;8265058;28;20038;-75
2022/12/23 17:04:58;;;;;;;1.35;0.70;;;;;;;;;;8274230;28;20480;-74
2022/12/23 17:08:58;;;;;;;1.42;0.68;;;;;;;;;;8274344;28;20029;-76
2022/12/23 17:12:58;;;;;;;2.08;0.70;;;;;;;;;;8275382;28;20040;-76
2022/12/23 17:16:58;;;;;;;0.70;0.70;;;;;;;;;;8276439;28;20386;-76
2022/12/23 17:20:59;;;;;;;0.70;0.70;;;;;;;;;;8276148;28;20396;-76
2022/12/23 17:24:59;;;;;;;3.35;0.90;;;;;;;;;;8274749;28;20772;-76
2022/12/23 17:29:00;;;;;;;1.63;0.80;;;;;;;;;;8276145;28;20029;-76
2022/12/23 17:33:00;;;;;;;1.25;0.85;;;;;;;;;;8276423;28;20280;-75
2022/12/23 17:37:01;;;;;;;3.70;0.80;;;;;;;;;;8274400;28;20045;-76
2022/12/23 17:41:01;;;;;;;1.42;0.80;;;;;;;;;;8283237;28;20029;-77
2022/12/23 17:45:02;;;;;;;1.52;0.70;;;;;;;;;;8277126;28;20041;-77
2022/12/23 17:49:02;;;;;;;2.05;0.80;;;;;;;;;;8291825;28;20164;-77
2022/12/23 17:53:02;;;;;;;2.47;0.80;;;;;;;;;;8276949;28;20064;-76
2022/12/23 17:57:09;;;;;;;1.00;0.73;;;;;;;;;;8277190;28;20268;-76
2022/12/23 18:01:18;;;;;;;3.75;1.15;;;;;;;;;;8277031;28;20049;-76
2022/12/23 18:05:21;;;;;;;1.90;0.75;;;;;;;;;;8275498;28;20466;-77
2022/12/23 18:09:22;;;;;;;3.17;1.23;;;;;;;;;;8275639;28;20029;-76
2022/12/23 18:13:22;;;;;;;4.03;1.20;;;;;;;;;;8274925;28;20025;-76
2022/12/23 18:17:22;;;;;;;3.15;0.82;;;;;;;;;;8268895;28;20064;-76
2022/12/23 18:21:24;;;;;;;2.60;0.80;;;;;;;;;;8266866;28;20053;-76
2022/12/23 18:25:25;;;;;;;3.45;1.38;;;;;;;;;;8269767;28;20346;-77
2022/12/23 18:29:25;;;;;;;3.97;0.88;;;;;;;;;;8282856;28;20417;-76
2022/12/23 18:33:28;;;;;;;2.65;0.80;;;;;;;;;;8267935;28;20103;-76
2022/12/23 18:37:28;;;;;;;3.55;1.27;;;;;;;;;;8267812;28;20068;-76
2022/12/23 18:41:28;;;;;;;2.97;0.90;;;;;;;;;;8267628;28;20026;-76
2022/12/23 18:45:36;;;;;;;2.92;1.15;;;;;;;;;;8268315;28;20045;-76
2022/12/23 18:49:37;;;;;;;3.65;1.05;;;;;;;;;;8274915;28;20701;-77
2022/12/23 18:53:37;;;;;;;6.50;1.10;;;;;;;;;;8268624;28;20714;-76
2022/12/23 18:57:37;;;;;;;3.78;1.40;;;;;;;;;;8264138;28;20087;-76
2022/12/23 19:01:37;;;;;;;3.60;1.10;;;;;;;;;;8267348;28;20160;-76
2022/12/23 19:05:38;;;;;;;2.72;0.88;;;;;;;;;;8265834;28;20103;-76
2022/12/23 19:09:38;;;;;;;3.33;1.10;;;;;;;;;;8266989;28;20136;-77
2022/12/23 19:13:38;;;;;;;3.17;1.58;;;;;;;;;;8266966;28;20029;-77
2022/12/23 19:17:38;;;;;;;3.67;1.58;;;;;;;;;;8267193;28;20046;-77
2022/12/23 19:21:38;;;;;;;3.47;1.40;;;;;;;;;;8267477;28;20025;-77
2022/12/23 19:25:40;;;;;;;5.78;1.60;;;;;;;;;;8265434;28;20137;-76
2022/12/23 19:29:41;;;;;;;4.55;1.35;;;;;;;;;;8266153;28;20029;-77
2022/12/23 19:33:42;;;;;;;5.22;1.52;;;;;;;;;;8266355;28;20114;-76
2022/12/23 19:37:42;;;;;;;4.88;1.95;;;;;;;;;;8266624;28;20037;-77
2022/12/23 19:41:43;;;;;;;3.50;1.30;;;;;;;;;;8267691;28;20018;-76
2022/12/23 19:45:43;;;;;;;5.30;1.80;;;;;;;;;;8266168;28;20113;-77
2022/12/23 19:49:43;;;;;;;3.77;1.30;;;;;;;;;;8264891;28;20034;-76
2022/12/23 19:53:44;;;;;;;6.28;1.80;;;;;;;;;;8265670;28;20273;-77
2022/12/23 19:57:45;;;;;;;5.88;1.58;;;;;;;;;;8264857;28;20031;-77
2022/12/23 20:01:45;;;;;;;5.95;1.67;;;;;;;;;;8264780;28;20077;-77
2022/12/23 20:05:46;;;;;;;6.85;1.60;;;;;;;;;;8265123;28;20133;-76
2022/12/23 20:09:46;;;;;;;6.55;2.17;;;;;;;;;;8266577;28;20025;-77
2022/12/23 20:13:50;;;;;;;8.23;2.30;;;;;;;;;;8266408;28;20029;-77
2022/12/23 20:17:50;;;;;;;7.63;2.03;;;;;;;;;;8271858;28;20056;-77
2022/12/23 20:21:50;;;;;;;11.70;2.30;;;;;;;;;;8264753;28;20144;-76
2022/12/23 20:25:51;;;;;;;9.77;2.47;;;;;;;;;;8262192;28;20943;-77
2022/12/23 20:29:51;;;;;;;10.32;2.38;;;;;;;;;;8265545;28;20025;-76
2022/12/23 20:33:52;;;;;;;8.45;2.10;;;;;;;;;;8264475;28;20038;-77
2022/12/23 20:37:52;;;;;;;6.13;1.65;;;;;;;;;;8265734;28;20030;-76
2022/12/23 20:41:52;;;;;;;10.35;2.13;;;;;;;;;;8262555;28;20033;-77
2022/12/23 20:45:52;;;;;;;8.02;1.95;;;;;;;;;;8264924;28;20099;-76
2022/12/23 20:49:52;;;;;;;10.10;2.08;;;;;;;;;;8271409;28;20140;-76
2022/12/23 20:53:53;;;;;;;12.57;1.70;;;;;;;;;;8263605;28;20030;-76
2022/12/23 20:57:54;;;;;;;10.60;1.80;;;;;;;;;;8263303;28;20048;-76
2022/12/23 21:01:54;;;;;;;11.10;2.10;;;;;;;;;;8265041;28;20046;-77
2022/12/23 21:05:55;;;;;;;8.70;1.90;;;;;;;;;;8264372;28;20033;-77
2022/12/23 21:09:55;;;;;;;7.90;1.90;;;;;;;;;;8264352;28;20056;-77
2022/12/23 21:13:55;;;;;;;10.85;2.10;;;;;;;;;;8264920;28;20612;-77
2022/12/23 21:17:56;;;;;;;7.65;2.40;;;;;;;;;;8265124;28;20558;-75
2022/12/23 21:21:56;;;;;;;8.35;2.20;;;;;;;;;;8264576;28;20033;-77
2022/12/23 21:26:11;;;;;;;8.10;2.10;;;;;;;;;;8265235;28;20953;-77
2022/12/23 21:30:12;;;;;;;9.93;2.28;;;;;;;;;;8262876;28;20561;-77
2022/12/23 21:34:15;;;;;;;12.48;2.25;;;;;;;;;;8264283;28;20074;-76
2022/12/23 21:38:15;;;;;;;14.40;2.50;;;;;;;;;;8264038;28;20044;-76
2022/12/23 21:42:15;;;;;;;12.30;2.10;;;;;;;;;;8271103;28;20063;-76
2022/12/23 21:46:17;;;;;;;13.48;2.50;;;;;;;;;;8266433;28;20391;-76
2022/12/23 21:50:17;;;;;;;10.40;2.50;;;;;;;;;;8272674;28;20040;-76
2022/12/23 21:54:18;;;;;;;10.55;2.65;;;;;;;;;;8273213;28;20034;-77
2022/12/23 21:58:18;;;;;;;10.65;2.20;;;;;;;;;;8269282;28;20030;-76
2022/12/23 22:02:18;;;;;;;9.93;2.08;;;;;;;;;;8273097;28;20041;-76
2022/12/23 22:06:23;;;;;;;12.18;2.45;;;;;;;;;;8285005;28;20146;-76
2022/12/23 22:10:23;;;;;;;11.95;2.35;;;;;;;;;;8268420;28;20152;-76
2022/12/23 22:14:23;;;;;;;12.18;2.25;;;;;;;;;;8268513;28;20171;-77
2022/12/23 22:18:23;;;;;;;10.95;2.38;;;;;;;;;;8266517;28;20140;-77
2022/12/23 22:22:24;;;;;;;10.02;3.10;;;;;;;;;;8266745;28;20036;-76
2022/12/23 22:26:25;;;;;;;11.77;2.30;;;;;;;;;;8266849;28;20040;-76
2022/12/23 22:30:26;;;;;;;11.77;2.03;;;;;;;;;;8268711;28;20382;-76
2022/12/23 22:34:26;;;;;;;12.13;2.25;;;;;;;;;;8265771;28;20026;-77
2022/12/23 22:38:26;;;;;;;8.73;2.07;;;;;;;;;;8267873;28;20121;-76
2022/12/23 22:42:26;;;;;;;12.20;2.25;;;;;;;;;;8266658;28;20273;-76
2022/12/23 22:46:27;;;;;;;8.38;2.03;;;;;;;;;;8264595;28;20061;-76
2022/12/23 22:50:27;;;;;;;11.30;2.38;;;;;;;;;;8265883;28;20029;-77
2022/12/23 22:54:27;;;;;;;12.03;2.07;;;;;;;;;;8267764;28;20044;-76
2022/12/23 22:58:28;;;;;;;12.07;2.50;;;;;;;;;;8265609;28;20289;-75
2022/12/23 23:02:28;;;;;;;12.45;2.42;;;;;;;;;;8274463;28;20030;-76
2022/12/23 23:06:33;;;;;;;14.27;2.72;;;;;;;;;;8266412;28;20519;-76
2022/12/23 23:10:33;;;;;;;12.57;2.63;;;;;;;;;;8268277;28;20041;-77
2022/12/23 23:14:51;;;;;;;16.45;2.42;;;;;;;;;;8266550;28;20026;-78
2022/12/23 23:18:51;;;;;;;10.23;2.72;;;;;;;;;;8280199;28;20038;-76
2022/12/23 23:22:51;;;;;;;11.80;2.70;;;;;;;;;;8265269;28;20014;-77
2022/12/23 23:26:52;;;;;;;14.38;2.67;;;;;;;;;;8276841;28;20057;-76
2022/12/23 23:30:52;;;;;;;9.93;2.65;;;;;;;;;;8269527;28;20026;-76
2022/12/23 23:34:52;;;;;;;12.85;2.88;;;;;;;;;;8270541;28;20025;-76
2022/12/23 23:38:52;;;;;;;11.85;2.55;;;;;;;;;;8269779;28;20033;-76
2022/12/23 23:42:53;;;;;;;12.13;3.05;;;;;;;;;;8266672;28;20033;-76
2022/12/23 23:46:53;;;;;;;13.25;2.65;;;;;;;;;;8269293;28;20148;-77
2022/12/23 23:51:01;;;;;;;12.02;2.55;;;;;;;;;;8267885;28;20044;-76
2022/12/23 23:55:01;;;;;;;11.80;2.60;;;;;;;;;;8266407;28;20045;-76
2022/12/23 23:59:01;;;;;;;12.07;3.08;;;;;;;;;;8268715;28;20021;-76
